<?xml version="1.0" encoding="UTF-8" standalone="no" ?>
<gpx xmlns="http://www.topografix.com/GPX/1/1" xmlns:xsi="http://www.w3.org/2001/XMLSchema-instance" xsi:schemaLocation="http://www.topografix.com/GPX/1/1 http://www.topografix.com/GPX/1/1/gpx.xsd" version="1.1" creator="VisuGPX - https://www.visugpx.com">
  <metadata>
    <name> Sarrancolin Rte de la Soule 29 SEPT 2013</name>
    <desc><![CDATA[Rando du dimanche 29 septembre 2013]]></desc>
  </metadata>
  <trk>
    <name><![CDATA[Sarrancolin Rte de la Soule 29 SEPT 2013]]></name>
    <trkseg>
      <trkpt lat="42.97012" lon="0.37614">
        <ele>677.39</ele>
        <time>2013-09-29T13:14:02Z</time>
      </trkpt>
      <trkpt lat="42.97004" lon="0.37598">
        <ele>626.92</ele>
        <time>2013-09-29T13:14:53Z</time>
      </trkpt>
      <trkpt lat="42.97004" lon="0.37601">
        <ele>629.32</ele>
        <time>2013-09-29T13:15:04Z</time>
      </trkpt>
      <trkpt lat="42.96997" lon="0.37603">
        <ele>627.4</ele>
        <time>2013-09-29T13:15:12Z</time>
      </trkpt>
      <trkpt lat="42.96975" lon="0.37604">
        <ele>628.84</ele>
        <time>2013-09-29T13:15:30Z</time>
      </trkpt>
      <trkpt lat="42.96956" lon="0.37607">
        <ele>632.68</ele>
        <time>2013-09-29T13:15:46Z</time>
      </trkpt>
      <trkpt lat="42.96936" lon="0.37612">
        <ele>637.49</ele>
        <time>2013-09-29T13:16:02Z</time>
      </trkpt>
      <trkpt lat="42.96912" lon="0.37611">
        <ele>635.09</ele>
        <time>2013-09-29T13:16:20Z</time>
      </trkpt>
      <trkpt lat="42.96893" lon="0.37613">
        <ele>640.38</ele>
        <time>2013-09-29T13:16:38Z</time>
      </trkpt>
      <trkpt lat="42.96888" lon="0.37613">
        <ele>638.45</ele>
        <time>2013-09-29T13:16:50Z</time>
      </trkpt>
      <trkpt lat="42.96891" lon="0.3762">
        <ele>651.91</ele>
        <time>2013-09-29T13:17:14Z</time>
      </trkpt>
      <trkpt lat="42.96888" lon="0.37628">
        <ele>661.04</ele>
        <time>2013-09-29T13:17:22Z</time>
      </trkpt>
      <trkpt lat="42.96866" lon="0.37628">
        <ele>658.64</ele>
        <time>2013-09-29T13:17:39Z</time>
      </trkpt>
      <trkpt lat="42.96844" lon="0.37617">
        <ele>647.59</ele>
        <time>2013-09-29T13:17:53Z</time>
      </trkpt>
      <trkpt lat="42.96821" lon="0.3761">
        <ele>633.65</ele>
        <time>2013-09-29T13:18:08Z</time>
      </trkpt>
      <trkpt lat="42.96808" lon="0.37619">
        <ele>638.93</ele>
        <time>2013-09-29T13:18:24Z</time>
      </trkpt>
      <trkpt lat="42.96803" lon="0.37619">
        <ele>639.89</ele>
        <time>2013-09-29T13:18:28Z</time>
      </trkpt>
      <trkpt lat="42.96788" lon="0.37634">
        <ele>647.1</ele>
        <time>2013-09-29T13:18:43Z</time>
      </trkpt>
      <trkpt lat="42.9678" lon="0.37636">
        <ele>644.22</ele>
        <time>2013-09-29T13:18:49Z</time>
      </trkpt>
      <trkpt lat="42.96757" lon="0.37638">
        <ele>635.09</ele>
        <time>2013-09-29T13:19:07Z</time>
      </trkpt>
      <trkpt lat="42.9674" lon="0.37651">
        <ele>636.53</ele>
        <time>2013-09-29T13:19:23Z</time>
      </trkpt>
      <trkpt lat="42.96718" lon="0.37659">
        <ele>632.68</ele>
        <time>2013-09-29T13:19:43Z</time>
      </trkpt>
      <trkpt lat="42.96702" lon="0.37669">
        <ele>629.32</ele>
        <time>2013-09-29T13:20:00Z</time>
      </trkpt>
      <trkpt lat="42.96701" lon="0.3767">
        <ele>629.32</ele>
        <time>2013-09-29T13:20:02Z</time>
      </trkpt>
      <trkpt lat="42.96679" lon="0.37679">
        <ele>632.2</ele>
        <time>2013-09-29T13:20:23Z</time>
      </trkpt>
      <trkpt lat="42.96665" lon="0.37691">
        <ele>637.97</ele>
        <time>2013-09-29T13:20:37Z</time>
      </trkpt>
      <trkpt lat="42.9665" lon="0.37701">
        <ele>642.3</ele>
        <time>2013-09-29T13:20:53Z</time>
      </trkpt>
      <trkpt lat="42.96629" lon="0.37705">
        <ele>632.2</ele>
        <time>2013-09-29T13:21:11Z</time>
      </trkpt>
      <trkpt lat="42.96615" lon="0.37712">
        <ele>629.8</ele>
        <time>2013-09-29T13:21:26Z</time>
      </trkpt>
      <trkpt lat="42.96595" lon="0.37725">
        <ele>633.17</ele>
        <time>2013-09-29T13:21:48Z</time>
      </trkpt>
      <trkpt lat="42.96579" lon="0.3773">
        <ele>628.36</ele>
        <time>2013-09-29T13:22:05Z</time>
      </trkpt>
      <trkpt lat="42.96554" lon="0.37744">
        <ele>630.28</ele>
        <time>2013-09-29T13:22:28Z</time>
      </trkpt>
      <trkpt lat="42.96544" lon="0.37754">
        <ele>638.93</ele>
        <time>2013-09-29T13:22:38Z</time>
      </trkpt>
      <trkpt lat="42.96524" lon="0.37773">
        <ele>645.66</ele>
        <time>2013-09-29T13:22:58Z</time>
      </trkpt>
      <trkpt lat="42.96501" lon="0.37785">
        <ele>646.14</ele>
        <time>2013-09-29T13:23:18Z</time>
      </trkpt>
      <trkpt lat="42.9648" lon="0.37787">
        <ele>636.05</ele>
        <time>2013-09-29T13:23:34Z</time>
      </trkpt>
      <trkpt lat="42.96468" lon="0.37793">
        <ele>633.17</ele>
        <time>2013-09-29T13:23:44Z</time>
      </trkpt>
      <trkpt lat="42.96463" lon="0.37794">
        <ele>631.72</ele>
        <time>2013-09-29T13:23:48Z</time>
      </trkpt>
      <trkpt lat="42.9644" lon="0.37805">
        <ele>630.76</ele>
        <time>2013-09-29T13:24:08Z</time>
      </trkpt>
      <trkpt lat="42.9642" lon="0.37813">
        <ele>630.28</ele>
        <time>2013-09-29T13:24:27Z</time>
      </trkpt>
      <trkpt lat="42.96408" lon="0.37818">
        <ele>630.76</ele>
        <time>2013-09-29T13:24:41Z</time>
      </trkpt>
      <trkpt lat="42.96404" lon="0.37796">
        <ele>632.2</ele>
        <time>2013-09-29T13:25:01Z</time>
      </trkpt>
      <trkpt lat="42.96403" lon="0.37767">
        <ele>632.2</ele>
        <time>2013-09-29T13:25:21Z</time>
      </trkpt>
      <trkpt lat="42.96404" lon="0.37744">
        <ele>633.17</ele>
        <time>2013-09-29T13:25:37Z</time>
      </trkpt>
      <trkpt lat="42.96405" lon="0.37723">
        <ele>633.17</ele>
        <time>2013-09-29T13:25:53Z</time>
      </trkpt>
      <trkpt lat="42.96412" lon="0.37702">
        <ele>638.45</ele>
        <time>2013-09-29T13:26:11Z</time>
      </trkpt>
      <trkpt lat="42.96414" lon="0.37694">
        <ele>637.01</ele>
        <time>2013-09-29T13:26:18Z</time>
      </trkpt>
      <trkpt lat="42.96411" lon="0.37689">
        <ele>639.41</ele>
        <time>2013-09-29T13:26:24Z</time>
      </trkpt>
      <trkpt lat="42.96405" lon="0.3769">
        <ele>642.3</ele>
        <time>2013-09-29T13:26:31Z</time>
      </trkpt>
      <trkpt lat="42.96387" lon="0.37712">
        <ele>643.74</ele>
        <time>2013-09-29T13:26:54Z</time>
      </trkpt>
      <trkpt lat="42.96371" lon="0.37719">
        <ele>646.62</ele>
        <time>2013-09-29T13:27:12Z</time>
      </trkpt>
      <trkpt lat="42.96356" lon="0.37717">
        <ele>649.03</ele>
        <time>2013-09-29T13:27:31Z</time>
      </trkpt>
      <trkpt lat="42.9634" lon="0.37715">
        <ele>650.95</ele>
        <time>2013-09-29T13:27:48Z</time>
      </trkpt>
      <trkpt lat="42.96323" lon="0.37714">
        <ele>653.83</ele>
        <time>2013-09-29T13:28:05Z</time>
      </trkpt>
      <trkpt lat="42.96305" lon="0.37708">
        <ele>654.8</ele>
        <time>2013-09-29T13:28:26Z</time>
      </trkpt>
      <trkpt lat="42.9629" lon="0.37703">
        <ele>655.28</ele>
        <time>2013-09-29T13:28:47Z</time>
      </trkpt>
      <trkpt lat="42.96274" lon="0.37699">
        <ele>657.68</ele>
        <time>2013-09-29T13:29:08Z</time>
      </trkpt>
      <trkpt lat="42.96266" lon="0.37698">
        <ele>660.08</ele>
        <time>2013-09-29T13:29:31Z</time>
      </trkpt>
      <trkpt lat="42.9626" lon="0.37701">
        <ele>660.08</ele>
        <time>2013-09-29T13:30:25Z</time>
      </trkpt>
      <trkpt lat="42.96241" lon="0.37712">
        <ele>662.01</ele>
        <time>2013-09-29T13:30:50Z</time>
      </trkpt>
      <trkpt lat="42.96223" lon="0.37724">
        <ele>664.89</ele>
        <time>2013-09-29T13:31:10Z</time>
      </trkpt>
      <trkpt lat="42.96206" lon="0.37729">
        <ele>666.33</ele>
        <time>2013-09-29T13:31:27Z</time>
      </trkpt>
      <trkpt lat="42.96187" lon="0.3773">
        <ele>668.73</ele>
        <time>2013-09-29T13:31:45Z</time>
      </trkpt>
      <trkpt lat="42.9618" lon="0.37727">
        <ele>668.73</ele>
        <time>2013-09-29T13:31:53Z</time>
      </trkpt>
      <trkpt lat="42.96168" lon="0.37722">
        <ele>669.7</ele>
        <time>2013-09-29T13:32:04Z</time>
      </trkpt>
      <trkpt lat="42.96166" lon="0.37716">
        <ele>670.66</ele>
        <time>2013-09-29T13:32:09Z</time>
      </trkpt>
      <trkpt lat="42.96168" lon="0.37707">
        <ele>675.94</ele>
        <time>2013-09-29T13:32:17Z</time>
      </trkpt>
      <trkpt lat="42.96187" lon="0.37703">
        <ele>681.71</ele>
        <time>2013-09-29T13:32:35Z</time>
      </trkpt>
      <trkpt lat="42.96204" lon="0.37687">
        <ele>685.08</ele>
        <time>2013-09-29T13:32:54Z</time>
      </trkpt>
      <trkpt lat="42.96214" lon="0.37676">
        <ele>681.71</ele>
        <time>2013-09-29T13:33:04Z</time>
      </trkpt>
      <trkpt lat="42.96229" lon="0.37664">
        <ele>684.6</ele>
        <time>2013-09-29T13:33:19Z</time>
      </trkpt>
      <trkpt lat="42.96238" lon="0.37655">
        <ele>687</ele>
        <time>2013-09-29T13:33:30Z</time>
      </trkpt>
      <trkpt lat="42.96248" lon="0.37646">
        <ele>682.67</ele>
        <time>2013-09-29T13:33:42Z</time>
      </trkpt>
      <trkpt lat="42.96261" lon="0.37633">
        <ele>682.19</ele>
        <time>2013-09-29T13:33:57Z</time>
      </trkpt>
      <trkpt lat="42.96268" lon="0.37627">
        <ele>682.19</ele>
        <time>2013-09-29T13:34:04Z</time>
      </trkpt>
      <trkpt lat="42.96285" lon="0.37625">
        <ele>686.04</ele>
        <time>2013-09-29T13:34:19Z</time>
      </trkpt>
      <trkpt lat="42.96302" lon="0.37622">
        <ele>687.48</ele>
        <time>2013-09-29T13:34:35Z</time>
      </trkpt>
      <trkpt lat="42.96321" lon="0.37616">
        <ele>690.36</ele>
        <time>2013-09-29T13:34:51Z</time>
      </trkpt>
      <trkpt lat="42.96332" lon="0.37598">
        <ele>691.33</ele>
        <time>2013-09-29T13:35:08Z</time>
      </trkpt>
      <trkpt lat="42.9633" lon="0.37595">
        <ele>691.81</ele>
        <time>2013-09-29T13:35:12Z</time>
      </trkpt>
      <trkpt lat="42.96309" lon="0.37594">
        <ele>689.4</ele>
        <time>2013-09-29T13:35:31Z</time>
      </trkpt>
      <trkpt lat="42.9629" lon="0.37588">
        <ele>688.44</ele>
        <time>2013-09-29T13:35:49Z</time>
      </trkpt>
      <trkpt lat="42.96271" lon="0.37576">
        <ele>692.29</ele>
        <time>2013-09-29T13:36:08Z</time>
      </trkpt>
      <trkpt lat="42.96251" lon="0.37571">
        <ele>693.25</ele>
        <time>2013-09-29T13:36:27Z</time>
      </trkpt>
      <trkpt lat="42.96233" lon="0.37579">
        <ele>693.25</ele>
        <time>2013-09-29T13:36:46Z</time>
      </trkpt>
      <trkpt lat="42.96213" lon="0.37581">
        <ele>695.65</ele>
        <time>2013-09-29T13:37:05Z</time>
      </trkpt>
      <trkpt lat="42.96212" lon="0.37581">
        <ele>699.02</ele>
        <time>2013-09-29T13:37:08Z</time>
      </trkpt>
      <trkpt lat="42.96229" lon="0.37561">
        <ele>706.71</ele>
        <time>2013-09-29T13:37:31Z</time>
      </trkpt>
      <trkpt lat="42.96244" lon="0.37544">
        <ele>708.15</ele>
        <time>2013-09-29T13:37:49Z</time>
      </trkpt>
      <trkpt lat="42.96247" lon="0.37543">
        <ele>709.11</ele>
        <time>2013-09-29T13:37:52Z</time>
      </trkpt>
      <trkpt lat="42.96269" lon="0.37539">
        <ele>706.71</ele>
        <time>2013-09-29T13:38:11Z</time>
      </trkpt>
      <trkpt lat="42.96292" lon="0.37532">
        <ele>710.55</ele>
        <time>2013-09-29T13:38:35Z</time>
      </trkpt>
      <trkpt lat="42.96311" lon="0.37519">
        <ele>709.59</ele>
        <time>2013-09-29T13:38:55Z</time>
      </trkpt>
      <trkpt lat="42.96321" lon="0.37508">
        <ele>711.99</ele>
        <time>2013-09-29T13:39:07Z</time>
      </trkpt>
      <trkpt lat="42.96331" lon="0.37488">
        <ele>713.44</ele>
        <time>2013-09-29T13:39:24Z</time>
      </trkpt>
      <trkpt lat="42.96342" lon="0.37469">
        <ele>713.44</ele>
        <time>2013-09-29T13:39:39Z</time>
      </trkpt>
      <trkpt lat="42.96352" lon="0.37449">
        <ele>727.37</ele>
        <time>2013-09-29T13:39:55Z</time>
      </trkpt>
      <trkpt lat="42.96354" lon="0.37438">
        <ele>728.82</ele>
        <time>2013-09-29T13:40:02Z</time>
      </trkpt>
      <trkpt lat="42.96365" lon="0.37418">
        <ele>726.41</ele>
        <time>2013-09-29T13:40:18Z</time>
      </trkpt>
      <trkpt lat="42.96377" lon="0.37401">
        <ele>724.97</ele>
        <time>2013-09-29T13:40:34Z</time>
      </trkpt>
      <trkpt lat="42.96391" lon="0.37389">
        <ele>729.3</ele>
        <time>2013-09-29T13:40:49Z</time>
      </trkpt>
      <trkpt lat="42.96408" lon="0.37386">
        <ele>730.74</ele>
        <time>2013-09-29T13:41:01Z</time>
      </trkpt>
      <trkpt lat="42.96424" lon="0.37382">
        <ele>730.26</ele>
        <time>2013-09-29T13:41:18Z</time>
      </trkpt>
      <trkpt lat="42.96431" lon="0.37378">
        <ele>729.78</ele>
        <time>2013-09-29T13:41:25Z</time>
      </trkpt>
      <trkpt lat="42.96448" lon="0.37369">
        <ele>732.66</ele>
        <time>2013-09-29T13:41:43Z</time>
      </trkpt>
      <trkpt lat="42.96461" lon="0.37366">
        <ele>734.58</ele>
        <time>2013-09-29T13:41:57Z</time>
      </trkpt>
      <trkpt lat="42.96474" lon="0.37363">
        <ele>737.95</ele>
        <time>2013-09-29T13:42:11Z</time>
      </trkpt>
      <trkpt lat="42.96478" lon="0.37358">
        <ele>738.43</ele>
        <time>2013-09-29T13:42:15Z</time>
      </trkpt>
      <trkpt lat="42.96482" lon="0.37348">
        <ele>735.07</ele>
        <time>2013-09-29T13:42:25Z</time>
      </trkpt>
      <trkpt lat="42.9647" lon="0.37343">
        <ele>735.55</ele>
        <time>2013-09-29T13:42:40Z</time>
      </trkpt>
      <trkpt lat="42.96467" lon="0.37345">
        <ele>736.03</ele>
        <time>2013-09-29T13:42:43Z</time>
      </trkpt>
      <trkpt lat="42.96451" lon="0.37345">
        <ele>739.39</ele>
        <time>2013-09-29T13:43:00Z</time>
      </trkpt>
      <trkpt lat="42.96434" lon="0.37341">
        <ele>742.28</ele>
        <time>2013-09-29T13:43:19Z</time>
      </trkpt>
      <trkpt lat="42.96418" lon="0.37335">
        <ele>745.16</ele>
        <time>2013-09-29T13:43:36Z</time>
      </trkpt>
      <trkpt lat="42.96402" lon="0.37333">
        <ele>747.56</ele>
        <time>2013-09-29T13:43:53Z</time>
      </trkpt>
      <trkpt lat="42.96383" lon="0.37337">
        <ele>749.49</ele>
        <time>2013-09-29T13:44:11Z</time>
      </trkpt>
      <trkpt lat="42.9636" lon="0.37344">
        <ele>752.37</ele>
        <time>2013-09-29T13:44:32Z</time>
      </trkpt>
      <trkpt lat="42.96341" lon="0.37353">
        <ele>753.81</ele>
        <time>2013-09-29T13:44:49Z</time>
      </trkpt>
      <trkpt lat="42.9632" lon="0.37362">
        <ele>755.25</ele>
        <time>2013-09-29T13:45:06Z</time>
      </trkpt>
      <trkpt lat="42.96305" lon="0.37366">
        <ele>758.62</ele>
        <time>2013-09-29T13:45:19Z</time>
      </trkpt>
      <trkpt lat="42.96287" lon="0.37368">
        <ele>763.9</ele>
        <time>2013-09-29T13:45:38Z</time>
      </trkpt>
      <trkpt lat="42.96281" lon="0.37348">
        <ele>765.35</ele>
        <time>2013-09-29T13:45:54Z</time>
      </trkpt>
      <trkpt lat="42.96282" lon="0.37347">
        <ele>765.35</ele>
        <time>2013-09-29T13:45:56Z</time>
      </trkpt>
      <trkpt lat="42.96297" lon="0.37338">
        <ele>766.31</ele>
        <time>2013-09-29T13:46:14Z</time>
      </trkpt>
      <trkpt lat="42.96316" lon="0.37326">
        <ele>766.79</ele>
        <time>2013-09-29T13:46:35Z</time>
      </trkpt>
      <trkpt lat="42.96334" lon="0.37313">
        <ele>765.35</ele>
        <time>2013-09-29T13:46:54Z</time>
      </trkpt>
      <trkpt lat="42.9635" lon="0.37291">
        <ele>774</ele>
        <time>2013-09-29T13:47:13Z</time>
      </trkpt>
      <trkpt lat="42.9636" lon="0.3728">
        <ele>775.92</ele>
        <time>2013-09-29T13:47:27Z</time>
      </trkpt>
      <trkpt lat="42.96372" lon="0.3727">
        <ele>783.13</ele>
        <time>2013-09-29T13:47:41Z</time>
      </trkpt>
      <trkpt lat="42.96375" lon="0.37259">
        <ele>784.09</ele>
        <time>2013-09-29T13:47:53Z</time>
      </trkpt>
      <trkpt lat="42.96374" lon="0.37258">
        <ele>784.09</ele>
        <time>2013-09-29T13:47:54Z</time>
      </trkpt>
      <trkpt lat="42.9636" lon="0.37259">
        <ele>784.09</ele>
        <time>2013-09-29T13:48:10Z</time>
      </trkpt>
      <trkpt lat="42.96343" lon="0.37259">
        <ele>785.53</ele>
        <time>2013-09-29T13:48:27Z</time>
      </trkpt>
      <trkpt lat="42.96329" lon="0.37245">
        <ele>786.02</ele>
        <time>2013-09-29T13:48:43Z</time>
      </trkpt>
      <trkpt lat="42.96327" lon="0.37229">
        <ele>787.46</ele>
        <time>2013-09-29T13:48:54Z</time>
      </trkpt>
      <trkpt lat="42.96336" lon="0.37203">
        <ele>790.34</ele>
        <time>2013-09-29T13:49:15Z</time>
      </trkpt>
      <trkpt lat="42.96348" lon="0.372">
        <ele>792.74</ele>
        <time>2013-09-29T13:49:31Z</time>
      </trkpt>
      <trkpt lat="42.9635" lon="0.37202">
        <ele>792.74</ele>
        <time>2013-09-29T13:49:34Z</time>
      </trkpt>
      <trkpt lat="42.96367" lon="0.37201">
        <ele>796.59</ele>
        <time>2013-09-29T13:49:52Z</time>
      </trkpt>
      <trkpt lat="42.96376" lon="0.37184">
        <ele>799.95</ele>
        <time>2013-09-29T13:50:10Z</time>
      </trkpt>
      <trkpt lat="42.96375" lon="0.37178">
        <ele>801.4</ele>
        <time>2013-09-29T13:50:15Z</time>
      </trkpt>
      <trkpt lat="42.96372" lon="0.37153">
        <ele>804.28</ele>
        <time>2013-09-29T13:50:34Z</time>
      </trkpt>
      <trkpt lat="42.96374" lon="0.37129">
        <ele>804.28</ele>
        <time>2013-09-29T13:50:51Z</time>
      </trkpt>
      <trkpt lat="42.96375" lon="0.37104">
        <ele>806.68</ele>
        <time>2013-09-29T13:51:09Z</time>
      </trkpt>
      <trkpt lat="42.96371" lon="0.37083">
        <ele>811.01</ele>
        <time>2013-09-29T13:51:25Z</time>
      </trkpt>
      <trkpt lat="42.9637" lon="0.37055">
        <ele>806.68</ele>
        <time>2013-09-29T13:51:44Z</time>
      </trkpt>
      <trkpt lat="42.96367" lon="0.37034">
        <ele>808.61</ele>
        <time>2013-09-29T13:52:00Z</time>
      </trkpt>
      <trkpt lat="42.96356" lon="0.37008">
        <ele>822.06</ele>
        <time>2013-09-29T13:52:19Z</time>
      </trkpt>
      <trkpt lat="42.96352" lon="0.36978">
        <ele>823.03</ele>
        <time>2013-09-29T13:52:37Z</time>
      </trkpt>
      <trkpt lat="42.96352" lon="0.36946">
        <ele>824.95</ele>
        <time>2013-09-29T13:52:58Z</time>
      </trkpt>
      <trkpt lat="42.96356" lon="0.36919">
        <ele>826.39</ele>
        <time>2013-09-29T13:53:18Z</time>
      </trkpt>
      <trkpt lat="42.96363" lon="0.36894">
        <ele>825.91</ele>
        <time>2013-09-29T13:53:42Z</time>
      </trkpt>
      <trkpt lat="42.96369" lon="0.36867">
        <ele>830.72</ele>
        <time>2013-09-29T13:54:02Z</time>
      </trkpt>
      <trkpt lat="42.96374" lon="0.3684">
        <ele>833.12</ele>
        <time>2013-09-29T13:54:21Z</time>
      </trkpt>
      <trkpt lat="42.96379" lon="0.36808">
        <ele>837.93</ele>
        <time>2013-09-29T13:54:42Z</time>
      </trkpt>
      <trkpt lat="42.96382" lon="0.36794">
        <ele>837.45</ele>
        <time>2013-09-29T13:54:52Z</time>
      </trkpt>
      <trkpt lat="42.96381" lon="0.36761">
        <ele>845.14</ele>
        <time>2013-09-29T13:55:12Z</time>
      </trkpt>
      <trkpt lat="42.96372" lon="0.36733">
        <ele>848.02</ele>
        <time>2013-09-29T13:55:31Z</time>
      </trkpt>
      <trkpt lat="42.96357" lon="0.36706">
        <ele>848.5</ele>
        <time>2013-09-29T13:55:53Z</time>
      </trkpt>
      <trkpt lat="42.96349" lon="0.36682">
        <ele>850.42</ele>
        <time>2013-09-29T13:56:12Z</time>
      </trkpt>
      <trkpt lat="42.9635" lon="0.36681">
        <ele>850.42</ele>
        <time>2013-09-29T13:56:13Z</time>
      </trkpt>
      <trkpt lat="42.96353" lon="0.36681">
        <ele>853.31</ele>
        <time>2013-09-29T13:56:17Z</time>
      </trkpt>
      <trkpt lat="42.96359" lon="0.36687">
        <ele>853.79</ele>
        <time>2013-09-29T13:56:23Z</time>
      </trkpt>
      <trkpt lat="42.96375" lon="0.36713">
        <ele>853.31</ele>
        <time>2013-09-29T13:56:43Z</time>
      </trkpt>
      <trkpt lat="42.96391" lon="0.3674">
        <ele>856.19</ele>
        <time>2013-09-29T13:57:04Z</time>
      </trkpt>
      <trkpt lat="42.96403" lon="0.36766">
        <ele>860.04</ele>
        <time>2013-09-29T13:57:23Z</time>
      </trkpt>
      <trkpt lat="42.96408" lon="0.3678">
        <ele>861.96</ele>
        <time>2013-09-29T13:57:33Z</time>
      </trkpt>
      <trkpt lat="42.96413" lon="0.36811">
        <ele>865.8</ele>
        <time>2013-09-29T13:57:54Z</time>
      </trkpt>
      <trkpt lat="42.96415" lon="0.36842">
        <ele>869.17</ele>
        <time>2013-09-29T13:58:15Z</time>
      </trkpt>
      <trkpt lat="42.96415" lon="0.36875">
        <ele>871.09</ele>
        <time>2013-09-29T13:58:37Z</time>
      </trkpt>
      <trkpt lat="42.96419" lon="0.36892">
        <ele>872.05</ele>
        <time>2013-09-29T13:58:51Z</time>
      </trkpt>
      <trkpt lat="42.96422" lon="0.36892">
        <ele>872.05</ele>
        <time>2013-09-29T13:58:55Z</time>
      </trkpt>
      <trkpt lat="42.96427" lon="0.36879">
        <ele>872.05</ele>
        <time>2013-09-29T13:59:07Z</time>
      </trkpt>
      <trkpt lat="42.96424" lon="0.36844">
        <ele>875.9</ele>
        <time>2013-09-29T13:59:30Z</time>
      </trkpt>
      <trkpt lat="42.96427" lon="0.3681">
        <ele>876.86</ele>
        <time>2013-09-29T13:59:55Z</time>
      </trkpt>
      <trkpt lat="42.96428" lon="0.36778">
        <ele>882.63</ele>
        <time>2013-09-29T14:00:17Z</time>
      </trkpt>
      <trkpt lat="42.96427" lon="0.36745">
        <ele>885.99</ele>
        <time>2013-09-29T14:00:40Z</time>
      </trkpt>
      <trkpt lat="42.96421" lon="0.36707">
        <ele>890.32</ele>
        <time>2013-09-29T14:01:05Z</time>
      </trkpt>
      <trkpt lat="42.96412" lon="0.36675">
        <ele>892.24</ele>
        <time>2013-09-29T14:01:29Z</time>
      </trkpt>
      <trkpt lat="42.96399" lon="0.36649">
        <ele>894.64</ele>
        <time>2013-09-29T14:01:51Z</time>
      </trkpt>
      <trkpt lat="42.96396" lon="0.36615">
        <ele>899.45</ele>
        <time>2013-09-29T14:02:14Z</time>
      </trkpt>
      <trkpt lat="42.96397" lon="0.36583">
        <ele>902.82</ele>
        <time>2013-09-29T14:02:36Z</time>
      </trkpt>
      <trkpt lat="42.96403" lon="0.3655">
        <ele>907.14</ele>
        <time>2013-09-29T14:03:00Z</time>
      </trkpt>
      <trkpt lat="42.96412" lon="0.36519">
        <ele>907.62</ele>
        <time>2013-09-29T14:03:24Z</time>
      </trkpt>
      <trkpt lat="42.9642" lon="0.36493">
        <ele>905.7</ele>
        <time>2013-09-29T14:03:45Z</time>
      </trkpt>
      <trkpt lat="42.96425" lon="0.36463">
        <ele>906.18</ele>
        <time>2013-09-29T14:04:05Z</time>
      </trkpt>
      <trkpt lat="42.96427" lon="0.36428">
        <ele>910.51</ele>
        <time>2013-09-29T14:04:28Z</time>
      </trkpt>
      <trkpt lat="42.96432" lon="0.36393">
        <ele>914.83</ele>
        <time>2013-09-29T14:04:52Z</time>
      </trkpt>
      <trkpt lat="42.96438" lon="0.36359">
        <ele>919.64</ele>
        <time>2013-09-29T14:05:16Z</time>
      </trkpt>
      <trkpt lat="42.96443" lon="0.36337">
        <ele>923.96</ele>
        <time>2013-09-29T14:05:30Z</time>
      </trkpt>
      <trkpt lat="42.96455" lon="0.3632">
        <ele>920.12</ele>
        <time>2013-09-29T14:05:46Z</time>
      </trkpt>
      <trkpt lat="42.96459" lon="0.36303">
        <ele>925.41</ele>
        <time>2013-09-29T14:06:02Z</time>
      </trkpt>
      <trkpt lat="42.96463" lon="0.36293">
        <ele>933.1</ele>
        <time>2013-09-29T14:06:27Z</time>
      </trkpt>
      <trkpt lat="42.96466" lon="0.36293">
        <ele>932.62</ele>
        <time>2013-09-29T14:06:39Z</time>
      </trkpt>
      <trkpt lat="42.96465" lon="0.36294">
        <ele>932.62</ele>
        <time>2013-09-29T14:06:40Z</time>
      </trkpt>
      <trkpt lat="42.96455" lon="0.36325">
        <ele>930.21</ele>
        <time>2013-09-29T14:07:03Z</time>
      </trkpt>
      <trkpt lat="42.9645" lon="0.36357">
        <ele>931.17</ele>
        <time>2013-09-29T14:07:26Z</time>
      </trkpt>
      <trkpt lat="42.9645" lon="0.36388">
        <ele>934.06</ele>
        <time>2013-09-29T14:07:46Z</time>
      </trkpt>
      <trkpt lat="42.96452" lon="0.3642">
        <ele>936.46</ele>
        <time>2013-09-29T14:08:08Z</time>
      </trkpt>
      <trkpt lat="42.96459" lon="0.36446">
        <ele>939.35</ele>
        <time>2013-09-29T14:08:28Z</time>
      </trkpt>
      <trkpt lat="42.96462" lon="0.36475">
        <ele>944.15</ele>
        <time>2013-09-29T14:08:48Z</time>
      </trkpt>
      <trkpt lat="42.96466" lon="0.36506">
        <ele>946.56</ele>
        <time>2013-09-29T14:09:10Z</time>
      </trkpt>
      <trkpt lat="42.96469" lon="0.36535">
        <ele>947.52</ele>
        <time>2013-09-29T14:09:31Z</time>
      </trkpt>
      <trkpt lat="42.96472" lon="0.36572">
        <ele>948.96</ele>
        <time>2013-09-29T14:09:55Z</time>
      </trkpt>
      <trkpt lat="42.96479" lon="0.36605">
        <ele>948.96</ele>
        <time>2013-09-29T14:10:17Z</time>
      </trkpt>
      <trkpt lat="42.96491" lon="0.36627">
        <ele>951.36</ele>
        <time>2013-09-29T14:10:35Z</time>
      </trkpt>
      <trkpt lat="42.96504" lon="0.36648">
        <ele>952.8</ele>
        <time>2013-09-29T14:10:52Z</time>
      </trkpt>
      <trkpt lat="42.96519" lon="0.36675">
        <ele>954.25</ele>
        <time>2013-09-29T14:11:14Z</time>
      </trkpt>
      <trkpt lat="42.96531" lon="0.36701">
        <ele>955.21</ele>
        <time>2013-09-29T14:11:34Z</time>
      </trkpt>
      <trkpt lat="42.96539" lon="0.36717">
        <ele>955.69</ele>
        <time>2013-09-29T14:11:50Z</time>
      </trkpt>
      <trkpt lat="42.96546" lon="0.36709">
        <ele>958.57</ele>
        <time>2013-09-29T14:12:08Z</time>
      </trkpt>
      <trkpt lat="42.96546" lon="0.36716">
        <ele>960.98</ele>
        <time>2013-09-29T14:12:55Z</time>
      </trkpt>
      <trkpt lat="42.96537" lon="0.36713">
        <ele>960.49</ele>
        <time>2013-09-29T14:13:13Z</time>
      </trkpt>
      <trkpt lat="42.96532" lon="0.36699">
        <ele>961.46</ele>
        <time>2013-09-29T14:13:26Z</time>
      </trkpt>
      <trkpt lat="42.9652" lon="0.3667">
        <ele>961.46</ele>
        <time>2013-09-29T14:13:44Z</time>
      </trkpt>
      <trkpt lat="42.96501" lon="0.36636">
        <ele>959.53</ele>
        <time>2013-09-29T14:14:05Z</time>
      </trkpt>
      <trkpt lat="42.96485" lon="0.36605">
        <ele>957.13</ele>
        <time>2013-09-29T14:14:24Z</time>
      </trkpt>
      <trkpt lat="42.96478" lon="0.36582">
        <ele>954.25</ele>
        <time>2013-09-29T14:14:40Z</time>
      </trkpt>
      <trkpt lat="42.96473" lon="0.36548">
        <ele>953.77</ele>
        <time>2013-09-29T14:15:03Z</time>
      </trkpt>
      <trkpt lat="42.96471" lon="0.36537">
        <ele>955.69</ele>
        <time>2013-09-29T14:15:10Z</time>
      </trkpt>
      <trkpt lat="42.9647" lon="0.36514">
        <ele>953.28</ele>
        <time>2013-09-29T14:15:27Z</time>
      </trkpt>
      <trkpt lat="42.9647" lon="0.36488">
        <ele>942.71</ele>
        <time>2013-09-29T14:15:47Z</time>
      </trkpt>
      <trkpt lat="42.96465" lon="0.36458">
        <ele>938.38</ele>
        <time>2013-09-29T14:16:04Z</time>
      </trkpt>
      <trkpt lat="42.96464" lon="0.36456">
        <ele>938.86</ele>
        <time>2013-09-29T14:16:05Z</time>
      </trkpt>
      <trkpt lat="42.96455" lon="0.36429">
        <ele>940.79</ele>
        <time>2013-09-29T14:16:18Z</time>
      </trkpt>
      <trkpt lat="42.96455" lon="0.36425">
        <ele>940.31</ele>
        <time>2013-09-29T14:16:20Z</time>
      </trkpt>
      <trkpt lat="42.96451" lon="0.36383">
        <ele>939.35</ele>
        <time>2013-09-29T14:16:41Z</time>
      </trkpt>
      <trkpt lat="42.96452" lon="0.36345">
        <ele>937.42</ele>
        <time>2013-09-29T14:17:02Z</time>
      </trkpt>
      <trkpt lat="42.96462" lon="0.36315">
        <ele>935.98</ele>
        <time>2013-09-29T14:17:20Z</time>
      </trkpt>
      <trkpt lat="42.96463" lon="0.36305">
        <ele>935.02</ele>
        <time>2013-09-29T14:17:26Z</time>
      </trkpt>
      <trkpt lat="42.96456" lon="0.36305">
        <ele>933.58</ele>
        <time>2013-09-29T14:17:34Z</time>
      </trkpt>
      <trkpt lat="42.96444" lon="0.36335">
        <ele>929.25</ele>
        <time>2013-09-29T14:17:50Z</time>
      </trkpt>
      <trkpt lat="42.96443" lon="0.36338">
        <ele>928.77</ele>
        <time>2013-09-29T14:17:52Z</time>
      </trkpt>
      <trkpt lat="42.96437" lon="0.36354">
        <ele>927.33</ele>
        <time>2013-09-29T14:18:01Z</time>
      </trkpt>
      <trkpt lat="42.96433" lon="0.36372">
        <ele>925.41</ele>
        <time>2013-09-29T14:18:12Z</time>
      </trkpt>
      <trkpt lat="42.96426" lon="0.36407">
        <ele>918.2</ele>
        <time>2013-09-29T14:18:33Z</time>
      </trkpt>
      <trkpt lat="42.96423" lon="0.3644">
        <ele>913.87</ele>
        <time>2013-09-29T14:18:52Z</time>
      </trkpt>
      <trkpt lat="42.9642" lon="0.36466">
        <ele>911.95</ele>
        <time>2013-09-29T14:19:08Z</time>
      </trkpt>
      <trkpt lat="42.96414" lon="0.36498">
        <ele>909.54</ele>
        <time>2013-09-29T14:19:27Z</time>
      </trkpt>
      <trkpt lat="42.96405" lon="0.36535">
        <ele>905.22</ele>
        <time>2013-09-29T14:19:50Z</time>
      </trkpt>
      <trkpt lat="42.96396" lon="0.36569">
        <ele>901.85</ele>
        <time>2013-09-29T14:20:12Z</time>
      </trkpt>
      <trkpt lat="42.96393" lon="0.36605">
        <ele>898.01</ele>
        <time>2013-09-29T14:20:33Z</time>
      </trkpt>
      <trkpt lat="42.96394" lon="0.36637">
        <ele>894.16</ele>
        <time>2013-09-29T14:20:50Z</time>
      </trkpt>
      <trkpt lat="42.96405" lon="0.36668">
        <ele>891.76</ele>
        <time>2013-09-29T14:21:09Z</time>
      </trkpt>
      <trkpt lat="42.9642" lon="0.36699">
        <ele>890.8</ele>
        <time>2013-09-29T14:21:28Z</time>
      </trkpt>
      <trkpt lat="42.96426" lon="0.36736">
        <ele>885.03</ele>
        <time>2013-09-29T14:21:49Z</time>
      </trkpt>
      <trkpt lat="42.96428" lon="0.36767">
        <ele>881.67</ele>
        <time>2013-09-29T14:22:07Z</time>
      </trkpt>
      <trkpt lat="42.96424" lon="0.36806">
        <ele>879.74</ele>
        <time>2013-09-29T14:22:31Z</time>
      </trkpt>
      <trkpt lat="42.96423" lon="0.36842">
        <ele>877.34</ele>
        <time>2013-09-29T14:22:50Z</time>
      </trkpt>
      <trkpt lat="42.96425" lon="0.36877">
        <ele>873.98</ele>
        <time>2013-09-29T14:23:09Z</time>
      </trkpt>
      <trkpt lat="42.96425" lon="0.36891">
        <ele>872.53</ele>
        <time>2013-09-29T14:23:17Z</time>
      </trkpt>
      <trkpt lat="42.96416" lon="0.36884">
        <ele>873.01</ele>
        <time>2013-09-29T14:23:27Z</time>
      </trkpt>
      <trkpt lat="42.96417" lon="0.36842">
        <ele>874.46</ele>
        <time>2013-09-29T14:23:48Z</time>
      </trkpt>
      <trkpt lat="42.96414" lon="0.36801">
        <ele>870.13</ele>
        <time>2013-09-29T14:24:12Z</time>
      </trkpt>
      <trkpt lat="42.96406" lon="0.3677">
        <ele>867.25</ele>
        <time>2013-09-29T14:24:32Z</time>
      </trkpt>
      <trkpt lat="42.96395" lon="0.36743">
        <ele>864.84</ele>
        <time>2013-09-29T14:24:51Z</time>
      </trkpt>
      <trkpt lat="42.96378" lon="0.36716">
        <ele>861</ele>
        <time>2013-09-29T14:25:13Z</time>
      </trkpt>
      <trkpt lat="42.9636" lon="0.36694">
        <ele>860.04</ele>
        <time>2013-09-29T14:25:34Z</time>
      </trkpt>
      <trkpt lat="42.96348" lon="0.36687">
        <ele>858.11</ele>
        <time>2013-09-29T14:25:47Z</time>
      </trkpt>
      <trkpt lat="42.96348" lon="0.36691">
        <ele>857.15</ele>
        <time>2013-09-29T14:25:50Z</time>
      </trkpt>
      <trkpt lat="42.96363" lon="0.36713">
        <ele>852.35</ele>
        <time>2013-09-29T14:26:08Z</time>
      </trkpt>
      <trkpt lat="42.96372" lon="0.36739">
        <ele>849.94</ele>
        <time>2013-09-29T14:26:24Z</time>
      </trkpt>
      <trkpt lat="42.96382" lon="0.3676">
        <ele>848.98</ele>
        <time>2013-09-29T14:26:37Z</time>
      </trkpt>
      <trkpt lat="42.96382" lon="0.36796">
        <ele>842.25</ele>
        <time>2013-09-29T14:26:56Z</time>
      </trkpt>
      <trkpt lat="42.9638" lon="0.36801">
        <ele>842.25</ele>
        <time>2013-09-29T14:26:59Z</time>
      </trkpt>
      <trkpt lat="42.96376" lon="0.3683">
        <ele>841.29</ele>
        <time>2013-09-29T14:27:17Z</time>
      </trkpt>
      <trkpt lat="42.96369" lon="0.36862">
        <ele>837.45</ele>
        <time>2013-09-29T14:27:35Z</time>
      </trkpt>
      <trkpt lat="42.96364" lon="0.36888">
        <ele>831.68</ele>
        <time>2013-09-29T14:27:50Z</time>
      </trkpt>
      <trkpt lat="42.96356" lon="0.36918">
        <ele>831.68</ele>
        <time>2013-09-29T14:28:06Z</time>
      </trkpt>
      <trkpt lat="42.96351" lon="0.36959">
        <ele>828.79</ele>
        <time>2013-09-29T14:28:26Z</time>
      </trkpt>
      <trkpt lat="42.96357" lon="0.36993">
        <ele>824.47</ele>
        <time>2013-09-29T14:28:45Z</time>
      </trkpt>
      <trkpt lat="42.96362" lon="0.3702">
        <ele>822.06</ele>
        <time>2013-09-29T14:29:00Z</time>
      </trkpt>
      <trkpt lat="42.96368" lon="0.37056">
        <ele>817.26</ele>
        <time>2013-09-29T14:29:19Z</time>
      </trkpt>
      <trkpt lat="42.9637" lon="0.37087">
        <ele>814.37</ele>
        <time>2013-09-29T14:29:37Z</time>
      </trkpt>
      <trkpt lat="42.96372" lon="0.37122">
        <ele>811.49</ele>
        <time>2013-09-29T14:29:56Z</time>
      </trkpt>
      <trkpt lat="42.96371" lon="0.37132">
        <ele>811.01</ele>
        <time>2013-09-29T14:30:01Z</time>
      </trkpt>
      <trkpt lat="42.96371" lon="0.37142">
        <ele>809.57</ele>
        <time>2013-09-29T14:30:06Z</time>
      </trkpt>
      <trkpt lat="42.96376" lon="0.37178">
        <ele>803.32</ele>
        <time>2013-09-29T14:30:26Z</time>
      </trkpt>
      <trkpt lat="42.96369" lon="0.37202">
        <ele>798.03</ele>
        <time>2013-09-29T14:30:42Z</time>
      </trkpt>
      <trkpt lat="42.9635" lon="0.37204">
        <ele>795.63</ele>
        <time>2013-09-29T14:30:59Z</time>
      </trkpt>
      <trkpt lat="42.96346" lon="0.37192">
        <ele>795.63</ele>
        <time>2013-09-29T14:31:18Z</time>
      </trkpt>
      <trkpt lat="42.96345" lon="0.37192">
        <ele>795.15</ele>
        <time>2013-09-29T14:32:01Z</time>
      </trkpt>
      <trkpt lat="42.96344" lon="0.37195">
        <ele>796.11</ele>
        <time>2013-09-29T14:32:26Z</time>
      </trkpt>
      <trkpt lat="42.96342" lon="0.37199">
        <ele>796.59</ele>
        <time>2013-09-29T14:32:46Z</time>
      </trkpt>
      <trkpt lat="42.96329" lon="0.37222">
        <ele>794.19</ele>
        <time>2013-09-29T14:33:09Z</time>
      </trkpt>
      <trkpt lat="42.96329" lon="0.37227">
        <ele>792.74</ele>
        <time>2013-09-29T14:33:14Z</time>
      </trkpt>
      <trkpt lat="42.96331" lon="0.37251">
        <ele>786.98</ele>
        <time>2013-09-29T14:33:28Z</time>
      </trkpt>
      <trkpt lat="42.96352" lon="0.37261">
        <ele>788.42</ele>
        <time>2013-09-29T14:33:43Z</time>
      </trkpt>
      <trkpt lat="42.96372" lon="0.37257">
        <ele>785.53</ele>
        <time>2013-09-29T14:33:59Z</time>
      </trkpt>
      <trkpt lat="42.9638" lon="0.37262">
        <ele>781.21</ele>
        <time>2013-09-29T14:34:06Z</time>
      </trkpt>
      <trkpt lat="42.96378" lon="0.37269">
        <ele>779.77</ele>
        <time>2013-09-29T14:34:10Z</time>
      </trkpt>
      <trkpt lat="42.96358" lon="0.37284">
        <ele>778.32</ele>
        <time>2013-09-29T14:34:26Z</time>
      </trkpt>
      <trkpt lat="42.96338" lon="0.37301">
        <ele>776.88</ele>
        <time>2013-09-29T14:34:42Z</time>
      </trkpt>
      <trkpt lat="42.9632" lon="0.37323">
        <ele>777.84</ele>
        <time>2013-09-29T14:34:59Z</time>
      </trkpt>
      <trkpt lat="42.96296" lon="0.3734">
        <ele>774</ele>
        <time>2013-09-29T14:35:21Z</time>
      </trkpt>
      <trkpt lat="42.96278" lon="0.37354">
        <ele>769.19</ele>
        <time>2013-09-29T14:35:40Z</time>
      </trkpt>
      <trkpt lat="42.96277" lon="0.3736">
        <ele>767.75</ele>
        <time>2013-09-29T14:35:45Z</time>
      </trkpt>
      <trkpt lat="42.963" lon="0.3737">
        <ele>765.35</ele>
        <time>2013-09-29T14:36:04Z</time>
      </trkpt>
      <trkpt lat="42.96328" lon="0.37366">
        <ele>761.5</ele>
        <time>2013-09-29T14:36:25Z</time>
      </trkpt>
      <trkpt lat="42.96352" lon="0.37356">
        <ele>759.58</ele>
        <time>2013-09-29T14:36:44Z</time>
      </trkpt>
      <trkpt lat="42.96371" lon="0.37346">
        <ele>756.21</ele>
        <time>2013-09-29T14:37:00Z</time>
      </trkpt>
      <trkpt lat="42.9639" lon="0.37339">
        <ele>752.37</ele>
        <time>2013-09-29T14:37:15Z</time>
      </trkpt>
      <trkpt lat="42.96414" lon="0.3734">
        <ele>750.45</ele>
        <time>2013-09-29T14:37:32Z</time>
      </trkpt>
      <trkpt lat="42.96433" lon="0.37343">
        <ele>747.56</ele>
        <time>2013-09-29T14:37:49Z</time>
      </trkpt>
      <trkpt lat="42.96454" lon="0.37348">
        <ele>744.2</ele>
        <time>2013-09-29T14:38:07Z</time>
      </trkpt>
      <trkpt lat="42.96467" lon="0.37347">
        <ele>737.47</ele>
        <time>2013-09-29T14:38:24Z</time>
      </trkpt>
      <trkpt lat="42.96484" lon="0.37343">
        <ele>739.39</ele>
        <time>2013-09-29T14:38:40Z</time>
      </trkpt>
      <trkpt lat="42.9649" lon="0.37346">
        <ele>740.35</ele>
        <time>2013-09-29T14:38:46Z</time>
      </trkpt>
      <trkpt lat="42.9649" lon="0.37352">
        <ele>739.87</ele>
        <time>2013-09-29T14:38:50Z</time>
      </trkpt>
      <trkpt lat="42.96485" lon="0.37358">
        <ele>739.87</ele>
        <time>2013-09-29T14:38:56Z</time>
      </trkpt>
      <trkpt lat="42.96466" lon="0.3737">
        <ele>739.87</ele>
        <time>2013-09-29T14:39:12Z</time>
      </trkpt>
      <trkpt lat="42.96444" lon="0.3738">
        <ele>740.83</ele>
        <time>2013-09-29T14:39:27Z</time>
      </trkpt>
      <trkpt lat="42.96438" lon="0.37382">
        <ele>740.83</ele>
        <time>2013-09-29T14:39:32Z</time>
      </trkpt>
      <trkpt lat="42.96418" lon="0.37388">
        <ele>738.91</ele>
        <time>2013-09-29T14:39:45Z</time>
      </trkpt>
      <trkpt lat="42.96397" lon="0.37399">
        <ele>737.47</ele>
        <time>2013-09-29T14:40:00Z</time>
      </trkpt>
      <trkpt lat="42.96376" lon="0.37412">
        <ele>733.14</ele>
        <time>2013-09-29T14:40:16Z</time>
      </trkpt>
      <trkpt lat="42.96361" lon="0.37431">
        <ele>728.82</ele>
        <time>2013-09-29T14:40:31Z</time>
      </trkpt>
      <trkpt lat="42.96357" lon="0.37435">
        <ele>726.89</ele>
        <time>2013-09-29T14:40:35Z</time>
      </trkpt>
      <trkpt lat="42.96348" lon="0.3745">
        <ele>724.49</ele>
        <time>2013-09-29T14:40:45Z</time>
      </trkpt>
      <trkpt lat="42.96342" lon="0.37458">
        <ele>721.61</ele>
        <time>2013-09-29T14:40:51Z</time>
      </trkpt>
      <trkpt lat="42.96337" lon="0.37471">
        <ele>720.16</ele>
        <time>2013-09-29T14:40:58Z</time>
      </trkpt>
      <trkpt lat="42.96324" lon="0.37497">
        <ele>714.88</ele>
        <time>2013-09-29T14:41:13Z</time>
      </trkpt>
      <trkpt lat="42.96305" lon="0.37525">
        <ele>716.8</ele>
        <time>2013-09-29T14:41:31Z</time>
      </trkpt>
      <trkpt lat="42.96276" lon="0.37542">
        <ele>715.36</ele>
        <time>2013-09-29T14:41:52Z</time>
      </trkpt>
      <trkpt lat="42.96246" lon="0.37553">
        <ele>712.95</ele>
        <time>2013-09-29T14:42:13Z</time>
      </trkpt>
      <trkpt lat="42.96224" lon="0.37578">
        <ele>710.55</ele>
        <time>2013-09-29T14:42:33Z</time>
      </trkpt>
      <trkpt lat="42.96209" lon="0.37594">
        <ele>708.63</ele>
        <time>2013-09-29T14:42:46Z</time>
      </trkpt>
      <trkpt lat="42.96216" lon="0.37597">
        <ele>707.19</ele>
        <time>2013-09-29T14:42:53Z</time>
      </trkpt>
      <trkpt lat="42.9624" lon="0.37585">
        <ele>703.82</ele>
        <time>2013-09-29T14:43:09Z</time>
      </trkpt>
      <trkpt lat="42.96268" lon="0.37579">
        <ele>699.5</ele>
        <time>2013-09-29T14:43:28Z</time>
      </trkpt>
      <trkpt lat="42.96293" lon="0.37591">
        <ele>696.61</ele>
        <time>2013-09-29T14:43:46Z</time>
      </trkpt>
      <trkpt lat="42.96319" lon="0.37594">
        <ele>692.77</ele>
        <time>2013-09-29T14:44:05Z</time>
      </trkpt>
      <trkpt lat="42.96338" lon="0.37596">
        <ele>689.88</ele>
        <time>2013-09-29T14:44:22Z</time>
      </trkpt>
      <trkpt lat="42.96319" lon="0.37613">
        <ele>690.36</ele>
        <time>2013-09-29T14:44:39Z</time>
      </trkpt>
      <trkpt lat="42.96286" lon="0.37625">
        <ele>689.88</ele>
        <time>2013-09-29T14:45:03Z</time>
      </trkpt>
      <trkpt lat="42.9627" lon="0.37629">
        <ele>689.88</ele>
        <time>2013-09-29T14:45:16Z</time>
      </trkpt>
      <trkpt lat="42.96253" lon="0.37647">
        <ele>688.44</ele>
        <time>2013-09-29T14:45:34Z</time>
      </trkpt>
      <trkpt lat="42.96237" lon="0.37667">
        <ele>686.52</ele>
        <time>2013-09-29T14:45:50Z</time>
      </trkpt>
      <trkpt lat="42.96228" lon="0.37673">
        <ele>685.56</ele>
        <time>2013-09-29T14:45:58Z</time>
      </trkpt>
      <trkpt lat="42.96209" lon="0.3769">
        <ele>681.23</ele>
        <time>2013-09-29T14:46:13Z</time>
      </trkpt>
      <trkpt lat="42.96188" lon="0.37704">
        <ele>680.75</ele>
        <time>2013-09-29T14:46:30Z</time>
      </trkpt>
      <trkpt lat="42.9617" lon="0.37707">
        <ele>679.79</ele>
        <time>2013-09-29T14:46:43Z</time>
      </trkpt>
      <trkpt lat="42.96167" lon="0.3771">
        <ele>678.83</ele>
        <time>2013-09-29T14:46:46Z</time>
      </trkpt>
      <trkpt lat="42.96167" lon="0.37724">
        <ele>675.94</ele>
        <time>2013-09-29T14:46:56Z</time>
      </trkpt>
      <trkpt lat="42.96187" lon="0.37732">
        <ele>672.58</ele>
        <time>2013-09-29T14:47:11Z</time>
      </trkpt>
      <trkpt lat="42.96208" lon="0.37731">
        <ele>673.54</ele>
        <time>2013-09-29T14:47:26Z</time>
      </trkpt>
      <trkpt lat="42.9623" lon="0.37721">
        <ele>672.1</ele>
        <time>2013-09-29T14:47:44Z</time>
      </trkpt>
      <trkpt lat="42.96246" lon="0.3771">
        <ele>674.02</ele>
        <time>2013-09-29T14:48:00Z</time>
      </trkpt>
      <trkpt lat="42.96263" lon="0.377">
        <ele>670.18</ele>
        <time>2013-09-29T14:48:14Z</time>
      </trkpt>
      <trkpt lat="42.96278" lon="0.37699">
        <ele>662.97</ele>
        <time>2013-09-29T14:48:26Z</time>
      </trkpt>
      <trkpt lat="42.96286" lon="0.37699">
        <ele>662.97</ele>
        <time>2013-09-29T14:48:34Z</time>
      </trkpt>
      <trkpt lat="42.96307" lon="0.37707">
        <ele>664.41</ele>
        <time>2013-09-29T14:48:49Z</time>
      </trkpt>
      <trkpt lat="42.9632" lon="0.37711">
        <ele>661.52</ele>
        <time>2013-09-29T14:49:02Z</time>
      </trkpt>
      <trkpt lat="42.96336" lon="0.37717">
        <ele>661.04</ele>
        <time>2013-09-29T14:49:14Z</time>
      </trkpt>
      <trkpt lat="42.96341" lon="0.37719">
        <ele>659.12</ele>
        <time>2013-09-29T14:49:18Z</time>
      </trkpt>
      <trkpt lat="42.96362" lon="0.37722">
        <ele>655.76</ele>
        <time>2013-09-29T14:49:35Z</time>
      </trkpt>
      <trkpt lat="42.96375" lon="0.37722">
        <ele>653.35</ele>
        <time>2013-09-29T14:49:46Z</time>
      </trkpt>
      <trkpt lat="42.96386" lon="0.37711">
        <ele>651.43</ele>
        <time>2013-09-29T14:50:01Z</time>
      </trkpt>
      <trkpt lat="42.96393" lon="0.37702">
        <ele>645.18</ele>
        <time>2013-09-29T14:50:09Z</time>
      </trkpt>
      <trkpt lat="42.96412" lon="0.37688">
        <ele>645.18</ele>
        <time>2013-09-29T14:50:26Z</time>
      </trkpt>
      <trkpt lat="42.96413" lon="0.37697">
        <ele>642.3</ele>
        <time>2013-09-29T14:50:32Z</time>
      </trkpt>
      <trkpt lat="42.96405" lon="0.3773">
        <ele>636.53</ele>
        <time>2013-09-29T14:50:55Z</time>
      </trkpt>
      <trkpt lat="42.96403" lon="0.37758">
        <ele>634.13</ele>
        <time>2013-09-29T14:51:12Z</time>
      </trkpt>
      <trkpt lat="42.96404" lon="0.37796">
        <ele>634.13</ele>
        <time>2013-09-29T14:51:33Z</time>
      </trkpt>
      <trkpt lat="42.96408" lon="0.37819">
        <ele>630.76</ele>
        <time>2013-09-29T14:51:47Z</time>
      </trkpt>
      <trkpt lat="42.96411" lon="0.37821">
        <ele>631.72</ele>
        <time>2013-09-29T14:51:50Z</time>
      </trkpt>
      <trkpt lat="42.96418" lon="0.37819">
        <ele>634.61</ele>
        <time>2013-09-29T14:51:55Z</time>
      </trkpt>
      <trkpt lat="42.9644" lon="0.37808">
        <ele>633.65</ele>
        <time>2013-09-29T14:52:11Z</time>
      </trkpt>
      <trkpt lat="42.96464" lon="0.37793">
        <ele>636.05</ele>
        <time>2013-09-29T14:52:29Z</time>
      </trkpt>
      <trkpt lat="42.96488" lon="0.3778">
        <ele>635.09</ele>
        <time>2013-09-29T14:52:48Z</time>
      </trkpt>
      <trkpt lat="42.96497" lon="0.37779">
        <ele>635.09</ele>
        <time>2013-09-29T14:52:54Z</time>
      </trkpt>
      <trkpt lat="42.96509" lon="0.37769">
        <ele>632.68</ele>
        <time>2013-09-29T14:53:07Z</time>
      </trkpt>
      <trkpt lat="42.96513" lon="0.37765">
        <ele>629.8</ele>
        <time>2013-09-29T14:53:11Z</time>
      </trkpt>
      <trkpt lat="42.96516" lon="0.37764">
        <ele>628.84</ele>
        <time>2013-09-29T14:53:14Z</time>
      </trkpt>
      <trkpt lat="42.96528" lon="0.37756">
        <ele>628.36</ele>
        <time>2013-09-29T14:53:26Z</time>
      </trkpt>
      <trkpt lat="42.96531" lon="0.37753">
        <ele>627.88</ele>
        <time>2013-09-29T14:53:28Z</time>
      </trkpt>
      <trkpt lat="42.96551" lon="0.37741">
        <ele>626.44</ele>
        <time>2013-09-29T14:53:41Z</time>
      </trkpt>
      <trkpt lat="42.96563" lon="0.37739">
        <ele>628.36</ele>
        <time>2013-09-29T14:53:50Z</time>
      </trkpt>
      <trkpt lat="42.9657" lon="0.37737">
        <ele>630.76</ele>
        <time>2013-09-29T14:53:54Z</time>
      </trkpt>
      <trkpt lat="42.96587" lon="0.37727">
        <ele>636.05</ele>
        <time>2013-09-29T14:54:09Z</time>
      </trkpt>
      <trkpt lat="42.96602" lon="0.3772">
        <ele>637.49</ele>
        <time>2013-09-29T14:54:22Z</time>
      </trkpt>
      <trkpt lat="42.96605" lon="0.3772">
        <ele>639.41</ele>
        <time>2013-09-29T14:54:25Z</time>
      </trkpt>
      <trkpt lat="42.96623" lon="0.37705">
        <ele>632.68</ele>
        <time>2013-09-29T14:54:40Z</time>
      </trkpt>
      <trkpt lat="42.96641" lon="0.37698">
        <ele>631.24</ele>
        <time>2013-09-29T14:54:54Z</time>
      </trkpt>
      <trkpt lat="42.96649" lon="0.377">
        <ele>632.68</ele>
        <time>2013-09-29T14:55:02Z</time>
      </trkpt>
      <trkpt lat="42.96652" lon="0.37698">
        <ele>632.68</ele>
        <time>2013-09-29T14:55:06Z</time>
      </trkpt>
      <trkpt lat="42.96678" lon="0.37682">
        <ele>622.11</ele>
        <time>2013-09-29T14:55:22Z</time>
      </trkpt>
      <trkpt lat="42.96687" lon="0.3768">
        <ele>619.71</ele>
        <time>2013-09-29T14:55:29Z</time>
      </trkpt>
      <trkpt lat="42.96706" lon="0.37676">
        <ele>615.38</ele>
        <time>2013-09-29T14:55:42Z</time>
      </trkpt>
      <trkpt lat="42.96722" lon="0.37664">
        <ele>620.67</ele>
        <time>2013-09-29T14:55:57Z</time>
      </trkpt>
      <trkpt lat="42.96734" lon="0.37659">
        <ele>623.55</ele>
        <time>2013-09-29T14:56:07Z</time>
      </trkpt>
      <trkpt lat="42.96744" lon="0.37648">
        <ele>635.09</ele>
        <time>2013-09-29T14:56:20Z</time>
      </trkpt>
      <trkpt lat="42.96758" lon="0.37636">
        <ele>632.68</ele>
        <time>2013-09-29T14:56:33Z</time>
      </trkpt>
      <trkpt lat="42.96781" lon="0.37627">
        <ele>628.84</ele>
        <time>2013-09-29T14:56:49Z</time>
      </trkpt>
      <trkpt lat="42.96789" lon="0.37616">
        <ele>629.32</ele>
        <time>2013-09-29T14:57:02Z</time>
      </trkpt>
      <trkpt lat="42.96792" lon="0.37615">
        <ele>627.4</ele>
        <time>2013-09-29T14:57:04Z</time>
      </trkpt>
      <trkpt lat="42.96793" lon="0.37611">
        <ele>626.92</ele>
        <time>2013-09-29T14:57:07Z</time>
      </trkpt>
      <trkpt lat="42.96812" lon="0.37611">
        <ele>630.28</ele>
        <time>2013-09-29T14:57:20Z</time>
      </trkpt>
      <trkpt lat="42.96831" lon="0.37605">
        <ele>624.03</ele>
        <time>2013-09-29T14:57:34Z</time>
      </trkpt>
      <trkpt lat="42.9686" lon="0.37606">
        <ele>624.03</ele>
        <time>2013-09-29T14:57:51Z</time>
      </trkpt>
      <trkpt lat="42.96884" lon="0.37607">
        <ele>630.28</ele>
        <time>2013-09-29T14:58:09Z</time>
      </trkpt>
      <trkpt lat="42.96898" lon="0.37607">
        <ele>632.2</ele>
        <time>2013-09-29T14:58:20Z</time>
      </trkpt>
      <trkpt lat="42.9692" lon="0.37602">
        <ele>633.17</ele>
        <time>2013-09-29T14:58:37Z</time>
      </trkpt>
      <trkpt lat="42.9695" lon="0.37601">
        <ele>630.76</ele>
        <time>2013-09-29T14:59:00Z</time>
      </trkpt>
      <trkpt lat="42.96976" lon="0.37602">
        <ele>629.8</ele>
        <time>2013-09-29T14:59:21Z</time>
      </trkpt>
      <trkpt lat="42.96982" lon="0.37601">
        <ele>630.28</ele>
        <time>2013-09-29T14:59:26Z</time>
      </trkpt>
      <trkpt lat="42.96992" lon="0.376">
        <ele>630.76</ele>
        <time>2013-09-29T14:59:35Z</time>
      </trkpt>
      <trkpt lat="42.97006" lon="0.376">
        <ele>631.72</ele>
        <time>2013-09-29T14:59:51Z</time>
      </trkpt>
      <trkpt lat="42.97009" lon="0.37591">
        <ele>631.72</ele>
        <time>2013-09-29T15:00:04Z</time>
      </trkpt>
      <trkpt lat="42.97013" lon="0.37579">
        <ele>628.84</ele>
        <time>2013-09-29T15:00:15Z</time>
      </trkpt>
      <trkpt lat="42.97013" lon="0.37576">
        <ele>628.36</ele>
        <time>2013-09-29T15:00:19Z</time>
      </trkpt>
      <trkpt lat="42.97013" lon="0.37574">
        <ele>632.2</ele>
        <time>2013-09-29T15:00:31Z</time>
      </trkpt>
      <trkpt lat="42.97016" lon="0.3756">
        <ele>628.36</ele>
        <time>2013-09-29T15:00:45Z</time>
      </trkpt>
      <trkpt lat="42.97018" lon="0.37568">
        <ele>620.67</ele>
        <time>2013-09-29T15:00:59Z</time>
      </trkpt>
      <trkpt lat="42.97017" lon="0.37569">
        <ele>620.67</ele>
        <time>2013-09-29T15:01:00Z</time>
      </trkpt>
      <trkpt lat="42.9702" lon="0.37567">
        <ele>618.26</ele>
        <time>2013-09-29T15:01:15Z</time>
      </trkpt>
      <trkpt lat="42.97016" lon="0.37566">
        <ele>626.44</ele>
        <time>2013-09-29T15:01:33Z</time>
      </trkpt>
      <trkpt lat="42.97006" lon="0.37571">
        <ele>633.17</ele>
        <time>2013-09-29T15:01:49Z</time>
      </trkpt>
      <trkpt lat="42.97006" lon="0.37573">
        <ele>642.78</ele>
        <time>2013-09-29T15:02:05Z</time>
      </trkpt>
    </trkseg>
  </trk>
</gpx>